SOHO CELIAS Proton Monitor
Solar Wind Parameters for Carrington Rotation 1905 (hour averages)


Listed Parameters:

Measurement time (Year, Day of Year, Hour, Minute, Second)
Proton speed [km/sec]
Proton density [protons per cubic centimeter]
Most probable proton thermal speed [km/sec]
Arrival direction [degrees from north-south, with + meaning FROM the south).
(SPEED=-1 means NOT AVAILABLE)

SOHO spacecraft coordinates: based on SOHO PRE orbit files
GSE X, Y, Z [Earth Radii] 1 RE == 6378 km
Heliocentric Range [106 km],
Heliographic Latitude and Longitude [deg].

FORMAT=(1X,I2,1X,I3,1X,I2,1X,I2,1X,I2,F7.1,3F7.2,3X,3F7.1,F7.1,F7.2,F8.2)



                              CELIAS/MTOF/PM DATA                      SOHO ORBIT DATA              
 InSitu_Start__Time       [km/s]  [cm-3] [km/s]  [deg]      [Re]   [Re]   [Re]  [Mkm]  [deg]  [deg]
 YY MON DY DOY:HH:MM:SS   SPEED     Np     Vth    N/S      GSE_X  GSE_Y  GSE_Z  RANGE  HGLAT  HGLONG
 96 JAN 20  20:18:00:00     434   10.2      37    3.2      211.2 -100.1  -11.0  145.9   -5.1   310.9
 96 JAN 20  20:19:00:00     442    8.9      40    2.5      211.2 -100.2  -10.9  145.9   -5.1   310.4
 96 JAN 20  20:20:00:00     450    9.4      43    2.2      211.2 -100.2  -10.9  145.9   -5.1   309.8
 96 JAN 20  20:21:00:00     441    7.5      41    2.5      211.2 -100.3  -10.9  145.9   -5.1   309.3
 96 JAN 20  20:22:00:00     446   10.0      41    2.1      211.2 -100.3  -10.9  145.9   -5.1   308.7
 96 JAN 20  20:23:00:00     436   10.2      38    1.5      211.1 -100.4  -10.8  145.9   -5.1   308.2
 96 JAN 21  21:00:00:00     426    8.0      36    0.8      211.1 -100.4  -10.8  145.9   -5.1   307.6
 96 JAN 21  21:01:00:00     432    6.5      39    1.1      211.1 -100.4  -10.8  145.9   -5.1   307.1
 96 JAN 21  21:02:00:00     426    7.3      37    0.7      211.1 -100.5  -10.8  145.9   -5.1   306.5
 96 JAN 21  21:03:00:00     432    7.7      38    0.5      211.1 -100.5  -10.7  145.9   -5.1   306.0
 96 JAN 21  21:04:00:00     431    7.6      38    0.9      211.0 -100.6  -10.7  145.9   -5.1   305.4
 96 JAN 21  21:05:00:00     438    6.7      40    1.1      211.0 -100.6  -10.7  145.9   -5.1   304.9
 96 JAN 21  21:06:00:00     440    7.8      40    0.9      211.0 -100.7  -10.7  145.9   -5.2   304.3
 96 JAN 21  21:07:00:00     432    7.2      39    1.0      211.0 -100.7  -10.6  145.9   -5.2   303.8
 96 JAN 21  21:08:00:00     433    6.7      39    0.8      210.9 -100.7  -10.6  145.9   -5.2   303.2
 96 JAN 21  21:09:00:00     423    6.9      37    1.2      210.9 -100.8  -10.6  145.9   -5.2   302.7
 96 JAN 21  21:10:00:00     408    6.6      32    1.3      210.9 -100.8  -10.6  145.9   -5.2   302.1
 96 JAN 21  21:11:00:00     423    9.2      35    1.0      210.9 -100.9  -10.5  145.9   -5.2   301.6
 96 JAN 21  21:12:00:00     442    6.4      40    0.9      210.9 -100.9  -10.5  145.9   -5.2   301.0
 96 JAN 21  21:13:00:00     441    6.0      40    0.2      210.8 -100.9  -10.5  145.9   -5.2   300.5
 96 JAN 21  21:14:00:00     440    6.3      40    0.3      210.8 -101.0  -10.5  145.9   -5.2   299.9
 96 JAN 21  21:15:00:00     423    6.3      36   -0.2      210.8 -101.0  -10.4  145.9   -5.2   299.4
 96 JAN 21  21:16:00:00     415    7.0      33    0.3      210.8 -101.1  -10.4  145.9   -5.2   298.8
 96 JAN 21  21:17:00:00     412    7.9      32   -1.0      210.8 -101.1  -10.4  145.9   -5.2   298.3
 96 JAN 21  21:18:00:00     409    8.9      31   -0.9      210.7 -101.1  -10.4  145.9   -5.2   297.7
 96 JAN 21  21:19:00:00     410   10.2      29   -0.6      210.7 -101.2  -10.4  145.9   -5.2   297.2
 96 JAN 21  21:20:00:00     406    8.9      28   -0.3      210.7 -101.2  -10.3  145.9   -5.2   296.6
 96 JAN 21  21:21:00:00     400    8.1      26   -0.3      210.7 -101.3  -10.3  145.9   -5.2   296.1
 96 JAN 21  21:22:00:00     399    7.7      27   -0.3      210.6 -101.3  -10.3  145.9   -5.2   295.5
 96 JAN 21  21:23:00:00     400   10.0      28   -1.2      210.6 -101.3  -10.3  145.9   -5.2   295.0
 96 JAN 22  22:00:00:00     402   10.4      33   -1.3      210.6 -101.4  -10.2  145.9   -5.2   294.4
 96 JAN 22  22:01:00:00     405    8.8      32   -1.2      210.6 -101.4  -10.2  145.9   -5.2   293.9
 96 JAN 22  22:02:00:00     403    8.1      30   -1.1      210.6 -101.5  -10.2  145.9   -5.2   293.3
 96 JAN 22  22:03:00:00     404    7.0      30   -0.8      210.5 -101.5  -10.2  145.9   -5.2   292.8
 96 JAN 22  22:04:00:00     404    6.7      31   -0.5      210.5 -101.5  -10.1  145.9   -5.2   292.2
 96 JAN 22  22:05:00:00     401    9.2      29   -1.3      210.5 -101.6  -10.1  145.9   -5.2   291.7
 96 JAN 22  22:06:00:00     398    8.8      30   -1.1      210.5 -101.6  -10.1  145.9   -5.2   291.1
 96 JAN 22  22:07:00:00     390    9.7      31   -1.0      210.4 -101.6  -10.1  145.9   -5.2   290.6
 96 JAN 22  22:08:00:00     386    9.2      33   -0.5      210.4 -101.7  -10.0  145.9   -5.2   290.0
 96 JAN 22  22:09:00:00     388    9.0      36    0.2      210.4 -101.7  -10.0  145.9   -5.3   289.5
 96 JAN 22  22:10:00:00     389    8.6      35   -0.1      210.4 -101.8  -10.0  145.9   -5.3   288.9
 96 JAN 22  22:11:00:00     397    8.0      35    0.4      210.3 -101.8  -10.0  145.9   -5.3   288.4
 96 JAN 22  22:12:00:00     385    9.6      34    0.4      210.3 -101.8   -9.9  145.9   -5.3   287.8
 96 JAN 22  22:13:00:00     385   10.7      35    0.8      210.3 -101.9   -9.9  145.9   -5.3   287.3
 96 JAN 22  22:14:00:00     386   11.0      35    1.9      210.3 -101.9   -9.9  145.9   -5.3   286.7
 96 JAN 22  22:15:00:00     390   11.8      33    1.4      210.2 -101.9   -9.9  145.9   -5.3   286.2
 96 JAN 22  22:16:00:00     392   11.4      32    0.7      210.2 -102.0   -9.8  145.9   -5.3   285.6
 96 JAN 22  22:17:00:00     398   11.1      32    1.5      210.2 -102.0   -9.8  145.9   -5.3   285.1
 96 JAN 22  22:18:00:00     395   10.5      31    0.4      210.2 -102.0   -9.8  145.9   -5.3   284.5
 96 JAN 22  22:19:00:00     393    8.5      35    0.6      210.2 -102.1   -9.8  145.9   -5.3   284.0
 96 JAN 22  22:20:00:00     389    8.7      31    0.6      210.1 -102.1   -9.7  145.9   -5.3   283.4
 96 JAN 22  22:21:00:00     383    8.7      33    0.3      210.1 -102.2   -9.7  145.9   -5.3   282.9
 96 JAN 22  22:22:00:00     373    9.8      34    0.1      210.1 -102.2   -9.7  145.9   -5.3   282.3
 96 JAN 22  22:23:00:00     369   10.6      36    0.6      210.1 -102.2   -9.7  145.9   -5.3   281.8
 96 JAN 23  23:00:00:00     372   10.3      33    0.4      210.0 -102.3   -9.6  145.9   -5.3   281.2
 96 JAN 23  23:01:00:00     370   10.5      33   -0.1      210.0 -102.3   -9.6  145.9   -5.3   280.7
 96 JAN 23  23:02:00:00     372   12.0      34   -0.2      210.0 -102.3   -9.6  145.9   -5.3   280.1
 96 JAN 23  23:03:00:00     370   11.1      34   -0.3      209.9 -102.4   -9.6  145.9   -5.3   279.6
 96 JAN 23  23:04:00:00     380    9.3      32    1.0      209.9 -102.4   -9.5  145.9   -5.3   279.0
 96 JAN 23  23:05:00:00     391    8.4      32    0.8      209.9 -102.4   -9.5  145.9   -5.3   278.5
 96 JAN 23  23:06:00:00     388    8.6      32    1.2      209.9 -102.5   -9.5  145.9   -5.3   277.9
 96 JAN 23  23:07:00:00     389    8.3      32    0.6      209.8 -102.5   -9.5  145.9   -5.3   277.4
 96 JAN 23  23:08:00:00     395   11.3      30   -0.4      209.8 -102.5   -9.4  145.9   -5.3   276.8
 96 JAN 23  23:09:00:00     388   12.0      28   -1.7      209.8 -102.6   -9.4  145.9   -5.3   276.3
 96 JAN 23  23:10:00:00     384   11.1      27   -1.1      209.8 -102.6   -9.4  145.9   -5.3   275.7
 96 JAN 23  23:11:00:00     383    9.2      29   -0.1      209.7 -102.6   -9.4  145.9   -5.3   275.2
 96 JAN 23  23:12:00:00     388    7.7      28    0.5      209.7 -102.7   -9.3  145.9   -5.4   274.6
 96 JAN 23  23:13:00:00     384    8.8      27    0.5      209.7 -102.7   -9.3  145.9   -5.4   274.1
 96 JAN 23  23:14:00:00     370    9.1      27    0.8      209.7 -102.7   -9.3  145.9   -5.4   273.5
 96 JAN 23  23:15:00:00     373    8.2      26    1.3      209.6 -102.8   -9.3  145.9   -5.4   273.0
 96 JAN 23  23:16:00:00     376    7.6      25    1.4      209.6 -102.8   -9.2  145.9   -5.4   272.4
 96 JAN 23  23:17:00:00     375    8.5      24    1.0      209.6 -102.8   -9.2  145.9   -5.4   271.9
 96 JAN 23  23:18:00:00     365    9.4      23    1.7      209.6 -102.9   -9.2  145.9   -5.4   271.3
 96 JAN 23  23:19:00:00     357    9.5      21    2.3      209.5 -102.9   -9.2  145.9   -5.4   270.8
 96 JAN 23  23:20:00:00     348    9.5      16    3.4      209.5 -102.9   -9.1  145.9   -5.4   270.2
 96 JAN 23  23:21:00:00     346   10.1      17    2.3      209.5 -102.9   -9.1  145.9   -5.4   269.7
 96 JAN 23  23:22:00:00     339   10.4      19    1.8      209.4 -103.0   -9.1  145.9   -5.4   269.1
 96 JAN 23  23:23:00:00     345   13.4      20    4.9      209.4 -103.0   -9.1  145.9   -5.4   268.6
 96 JAN 24  24:00:00:00     350   11.7      22    4.4      209.4 -103.0   -9.0  145.9   -5.4   268.0
 96 JAN 24  24:01:00:00     348    8.3      24    2.5      209.4 -103.1   -9.0  145.9   -5.4   267.5
 96 JAN 24  24:02:00:00     343    9.7      23    2.5      209.3 -103.1   -9.0  145.9   -5.4   266.9
 96 JAN 24  24:03:00:00     344    8.0      23    2.3      209.3 -103.1   -9.0  145.9   -5.4   266.4
 96 JAN 24  24:04:00:00     341    8.5      20    2.1      209.3 -103.2   -8.9  145.9   -5.4   265.8
 96 JAN 24  24:05:00:00     343    9.5      19    2.3      209.3 -103.2   -8.9  145.9   -5.4   265.3
 96 JAN 24  24:06:00:00     345   11.6      19    2.4      209.2 -103.2   -8.9  145.9   -5.4   264.7
 96 JAN 24  24:07:00:00     342   11.0      19    1.9      209.2 -103.3   -8.9  145.9   -5.4   264.2
 96 JAN 24  24:08:00:00     336   11.6      21    2.0      209.2 -103.3   -8.8  145.9   -5.4   263.6
 96 JAN 24  24:09:00:00     343   11.8      25    2.1      209.1 -103.3   -8.8  145.9   -5.4   263.1
 96 JAN 24  24:10:00:00     342   11.7      25    1.6      209.1 -103.3   -8.8  145.9   -5.4   262.5
 96 JAN 24  24:11:00:00     347   10.9      27    1.8      209.1 -103.4   -8.8  145.9   -5.4   262.0
 96 JAN 24  24:12:00:00     341   11.3      25    2.0      209.1 -103.4   -8.7  145.9   -5.4   261.4
 96 JAN 24  24:13:00:00     355   15.5      29    3.2      209.0 -103.4   -8.7  145.9   -5.4   260.9
 96 JAN 24  24:14:00:00     363   16.5      28    3.1      209.0 -103.5   -8.7  145.9   -5.4   260.3
 96 JAN 24  24:15:00:00     374   10.5      36    3.0      209.0 -103.5   -8.7  145.9   -5.4   259.8
 96 JAN 24  24:16:00:00     381    8.7      33    1.9      208.9 -103.5   -8.6  145.9   -5.4   259.2
 96 JAN 24  24:17:00:00     382    9.3      34    1.9      208.9 -103.5   -8.6  145.9   -5.5   258.7
 96 JAN 24  24:18:00:00     389    8.8      29    1.7      208.9 -103.6   -8.6  145.9   -5.5   258.1
 96 JAN 24  24:19:00:00     380    9.1      30    1.9      208.9 -103.6   -8.6  145.9   -5.5   257.6
 96 JAN 24  24:20:00:00     374    6.5      33    1.5      208.8 -103.6   -8.5  145.9   -5.5   257.0
 96 JAN 24  24:21:00:00     364    7.4      31    2.0      208.8 -103.7   -8.5  145.9   -5.5   256.5
 96 JAN 24  24:22:00:00     357    8.3      30    2.0      208.8 -103.7   -8.5  145.9   -5.5   255.9
 96 JAN 24  24:23:00:00     360   11.0      33    2.0      208.7 -103.7   -8.5  145.9   -5.5   255.4
 96 JAN 25  25:00:00:00     362   11.9      33    1.8      208.7 -103.7   -8.4  145.9   -5.5   254.8
 96 JAN 25  25:01:00:00     351   13.2      28    1.5      208.7 -103.8   -8.4  145.9   -5.5   254.3
 96 JAN 25  25:02:00:00     353   15.3      29    2.8      208.7 -103.8   -8.4  145.9   -5.5   253.7
 96 JAN 25  25:03:00:00     352   18.8      28    3.7      208.6 -103.8   -8.4  145.9   -5.5   253.2
 96 JAN 25  25:04:00:00     365   21.2      32    4.6      208.6 -103.8   -8.3  145.9   -5.5   252.6
 96 JAN 25  25:05:00:00     366   16.8      33    5.0      208.6 -103.9   -8.3  145.9   -5.5   252.1
 96 JAN 25  25:06:00:00     373   14.8      31    2.7      208.5 -103.9   -8.3  145.9   -5.5   251.5
 96 JAN 25  25:07:00:00     372   13.4      32    3.8      208.5 -103.9   -8.3  145.9   -5.5   251.0
 96 JAN 25  25:08:00:00     396   10.0      41    1.3      208.5 -104.0   -8.2  145.9   -5.5   250.4
 96 JAN 25  25:09:00:00     396   11.0      38    0.8      208.4 -104.0   -8.2  145.9   -5.5   249.9
 96 JAN 25  25:10:00:00     401   11.0      36    0.5      208.4 -104.0   -8.2  145.9   -5.5   249.3
 96 JAN 25  25:11:00:00     400    9.6      36    0.1      208.4 -104.0   -8.2  145.9   -5.5   248.8
 96 JAN 25  25:12:00:00     403    7.8      34   -0.2      208.4 -104.1   -8.1  145.9   -5.5   248.2
 96 JAN 25  25:13:00:00     399    7.5      33   -0.4      208.3 -104.1   -8.1  145.9   -5.5   247.7
 96 JAN 25  25:14:00:00     400    7.3      32   -0.2      208.3 -104.1   -8.1  145.9   -5.5   247.1
 96 JAN 25  25:15:00:00     397    6.7      31    0.0      208.3 -104.1   -8.0  145.9   -5.5   246.6
 96 JAN 25  25:16:00:00     407    7.0      34   -0.1      208.2 -104.2   -8.0  145.9   -5.5   246.0
 96 JAN 25  25:17:00:00     395    7.0      31   -0.2      208.2 -104.2   -8.0  145.9   -5.5   245.5
 96 JAN 25  25:18:00:00     393    7.1      30    0.8      208.2 -104.2   -8.0  145.9   -5.5   244.9
 96 JAN 25  25:19:00:00     407    8.1      32    0.5      208.1 -104.2   -7.9  145.9   -5.5   244.4
 96 JAN 25  25:20:00:00     416    8.7      34    0.9      208.1 -104.3   -7.9  145.9   -5.5   243.8
 96 JAN 25  25:21:00:00     420   10.6      35    1.7      208.1 -104.3   -7.9  146.0   -5.5   243.3
 96 JAN 25  25:22:00:00     404   12.5      33    3.4      208.1 -104.3   -7.9  146.0   -5.6   242.7
 96 JAN 25  25:23:00:00     422   12.2      35    2.9      208.0 -104.3   -7.8  146.0   -5.6   242.2
 96 JAN 26  26:00:00:00     420   11.0      35    2.2      208.0 -104.3   -7.8  146.0   -5.6   241.6
 96 JAN 26  26:01:00:00     420   10.0      35    2.0      208.0 -104.4   -7.8  146.0   -5.6   241.1
 96 JAN 26  26:02:00:00     420    8.8      35    1.5      207.9 -104.4   -7.8  146.0   -5.6   240.5
 96 JAN 26  26:03:00:00     413   10.0      34    2.6      207.9 -104.4   -7.7  146.0   -5.6   240.0
 96 JAN 26  26:04:00:00     412    9.2      34    2.2      207.9 -104.4   -7.7  146.0   -5.6   239.4
 96 JAN 26  26:05:00:00     409    8.6      34    1.6      207.8 -104.5   -7.7  146.0   -5.6   238.9
 96 JAN 26  26:06:00:00     413    8.6      36    1.4      207.8 -104.5   -7.7  146.0   -5.6   238.3
 96 JAN 26  26:07:00:00     426    8.6      38    1.2      207.8 -104.5   -7.6  146.0   -5.6   237.8
 96 JAN 26  26:08:00:00     426    7.2      38    0.6      207.8 -104.5   -7.6  146.0   -5.6   237.2
 96 JAN 26  26:09:00:00     424    7.7      37    0.5      207.7 -104.6   -7.6  146.0   -5.6   236.7
 96 JAN 26  26:10:00:00     427    7.9      38    0.6      207.7 -104.6   -7.6  146.0   -5.6   236.1
 96 JAN 26  26:11:00:00     440    7.0      44    0.7      207.7 -104.6   -7.5  146.0   -5.6   235.6
 96 JAN 26  26:12:00:00     438    7.6      41    1.3      207.6 -104.6   -7.5  146.0   -5.6   235.0
 96 JAN 26  26:13:00:00     443    6.9      46    0.3      207.6 -104.6   -7.5  146.0   -5.6   234.5
 96 JAN 26  26:14:00:00     444    6.3      49    0.2      207.6 -104.7   -7.5  146.0   -5.6   233.9
 96 JAN 26  26:15:00:00     433    6.8      50    0.3      207.5 -104.7   -7.4  146.0   -5.6   233.4
 96 JAN 26  26:16:00:00     426    7.1      48    0.1      207.5 -104.7   -7.4  146.0   -5.6   232.8
 96 JAN 26  26:17:00:00     398    6.3      41    0.2      207.5 -104.7   -7.4  146.0   -5.6   232.3
 96 JAN 26  26:18:00:00     392    5.4      40   -0.6      207.4 -104.7   -7.3  146.0   -5.6   231.7
 96 JAN 26  26:19:00:00     380    6.4      39    0.0      207.4 -104.8   -7.3  146.0   -5.6   231.2
 96 JAN 26  26:20:00:00     373    6.1      37   -0.1      207.4 -104.8   -7.3  146.0   -5.6   230.6
 96 JAN 26  26:21:00:00     367    8.3      32   -0.3      207.3 -104.8   -7.3  146.0   -5.6   230.1
 96 JAN 26  26:22:00:00     370    9.3      33   -0.5      207.3 -104.8   -7.2  146.0   -5.6   229.5
 96 JAN 26  26:23:00:00     390    9.4      30   -1.1      207.3 -104.9   -7.2  146.0   -5.6   229.0
 96 JAN 27  27:00:00:00     389    7.8      26   -0.8      207.3 -104.9   -7.2  146.0   -5.6   228.4
 96 JAN 27  27:01:00:00     407    7.1      34   -0.9      207.2 -104.9   -7.2  146.0   -5.6   227.9
 96 JAN 27  27:02:00:00     405    7.7      32   -0.5      207.2 -104.9   -7.1  146.0   -5.6   227.3
 96 JAN 27  27:03:00:00     408    7.0      32   -0.8      207.2 -104.9   -7.1  146.0   -5.7   226.8
 96 JAN 27  27:04:00:00     431    5.5      38   -1.1      207.1 -104.9   -7.1  146.0   -5.7   226.2
 96 JAN 27  27:05:00:00     440    4.2      42   -0.8      207.1 -105.0   -7.1  146.0   -5.7   225.7
 96 JAN 27  27:06:00:00     440    4.5      42   -0.4      207.1 -105.0   -7.0  146.0   -5.7   225.1
 96 JAN 27  27:07:00:00     436    4.3      41   -0.5      207.0 -105.0   -7.0  146.0   -5.7   224.6
 96 JAN 27  27:08:00:00     428    5.1      39   -0.9      207.0 -105.0   -7.0  146.0   -5.7   224.0
 96 JAN 27  27:09:00:00     438    5.5      42   -0.7      207.0 -105.0   -7.0  146.0   -5.7   223.5
 96 JAN 27  27:10:00:00     452    5.7      41   -1.7      206.9 -105.1   -6.9  146.0   -5.7   222.9
 96 JAN 27  27:11:00:00     472    5.8      40   -2.5      206.9 -105.1   -6.9  146.0   -5.7   222.4
 96 JAN 27  27:12:00:00     470    4.9      39   -1.7      206.9 -105.1   -6.9  146.0   -5.7   221.8
 96 JAN 27  27:13:00:00     467    4.6      39   -1.7      206.8 -105.1   -6.8  146.0   -5.7   221.3
 96 JAN 27  27:14:00:00     459    3.8      37   -1.4      206.8 -105.1   -6.8  146.0   -5.7   220.7
 96 JAN 27  27:15:00:00     441    3.8      39   -0.7      206.8 -105.2   -6.8  146.0   -5.7   220.2
 96 JAN 27  27:16:00:00     431    4.1      38   -0.9      206.8 -105.2   -6.8  146.0   -5.7   219.6
 96 JAN 27  27:17:00:00     433    4.5      37   -1.2      206.7 -105.2   -6.7  146.0   -5.7   219.1
 96 JAN 27  27:18:00:00     440    4.1      39   -0.4      206.7 -105.2   -6.7  146.0   -5.7   218.5
 96 JAN 27  27:19:00:00     428    4.2      38   -0.1      206.7 -105.2   -6.7  146.0   -5.7   218.0
 96 JAN 27  27:20:00:00     415    4.8      35   -0.8      206.6 -105.2   -6.7  146.0   -5.7   217.4
 96 JAN 27  27:21:00:00     405    5.8      30   -0.2      206.6 -105.3   -6.6  146.0   -5.7   216.9
 96 JAN 27  27:22:00:00     400    6.5      28    0.3      206.6 -105.3   -6.6  146.0   -5.7   216.3
 96 JAN 27  27:23:00:00     407    7.6      29    0.7      206.5 -105.3   -6.6  146.0   -5.7   215.8
 96 JAN 28  28:00:00:00     419    8.0      31    0.9      206.5 -105.3   -6.6  146.0   -5.7   215.2
 96 JAN 28  28:01:00:00     434    8.3      33    0.0      206.5 -105.3   -6.5  146.0   -5.7   214.7
 96 JAN 28  28:02:00:00     442    7.3      36    0.1      206.4 -105.3   -6.5  146.0   -5.7   214.1
 96 JAN 28  28:03:00:00     447    7.4      40   -0.1      206.4 -105.4   -6.5  146.0   -5.7   213.6
 96 JAN 28  28:04:00:00     443    7.9      40    0.3      206.4 -105.4   -6.4  146.0   -5.7   213.0
 96 JAN 28  28:05:00:00     444    9.0      40    0.7      206.3 -105.4   -6.4  146.0   -5.7   212.5
 96 JAN 28  28:06:00:00     437    9.5      38    1.0      206.3 -105.4   -6.4  146.0   -5.7   211.9
 96 JAN 28  28:07:00:00     428    9.4      36    1.6      206.3 -105.4   -6.4  146.0   -5.7   211.4
 96 JAN 28  28:08:00:00     423    9.2      36    2.1      206.2 -105.4   -6.3  146.0   -5.7   210.8
 96 JAN 28  28:09:00:00     424    9.2      35    2.0      206.2 -105.4   -6.3  146.0   -5.7   210.3
 96 JAN 28  28:10:00:00     423    9.9      34    1.8      206.2 -105.5   -6.3  146.0   -5.8   209.7
 96 JAN 28  28:11:00:00     423   10.2      34    1.6      206.1 -105.5   -6.3  146.0   -5.8   209.2
 96 JAN 28  28:12:00:00     411    9.0      33    1.6      206.1 -105.5   -6.2  146.0   -5.8   208.6
 96 JAN 28  28:13:00:00     405    7.8      32    0.9      206.1 -105.5   -6.2  146.0   -5.8   208.1
 96 JAN 28  28:14:00:00     410    7.8      33    0.2      206.1 -105.5   -6.2  146.0   -5.8   207.5
 96 JAN 28  28:15:00:00     407    7.3      33    0.2      206.0 -105.5   -6.2  146.0   -5.8   207.0
 96 JAN 28  28:16:00:00     408    7.8      33    0.4      206.0 -105.5   -6.1  146.0   -5.8   206.4
 96 JAN 28  28:17:00:00     408    8.1      33    0.7      206.0 -105.6   -6.1  146.0   -5.8   205.9
 96 JAN 28  28:18:00:00     407    8.8      33    0.6      205.9 -105.6   -6.1  146.0   -5.8   205.3
 96 JAN 28  28:19:00:00     410    9.4      33    0.7      205.9 -105.6   -6.0  146.0   -5.8   204.8
 96 JAN 28  28:20:00:00     419   12.1      32    1.2      205.9 -105.6   -6.0  146.0   -5.8   204.2
 96 JAN 28  28:21:00:00     428   12.9      33    1.7      205.8 -105.6   -6.0  146.0   -5.8   203.7
 96 JAN 28  28:22:00:00     446   11.0      35    1.3      205.8 -105.6   -6.0  146.0   -5.8   203.1
 96 JAN 28  28:23:00:00     504    8.0      52   -0.4      205.8 -105.6   -5.9  146.0   -5.8   202.6
 96 JAN 29  29:00:00:00     501    7.4      47   -0.6      205.7 -105.7   -5.9  146.0   -5.8   202.0
 96 JAN 29  29:01:00:00     511    7.5      48    1.2      205.7 -105.7   -5.9  146.0   -5.8   201.5
 96 JAN 29  29:02:00:00     521    7.0      51    0.8      205.7 -105.7   -5.9  146.0   -5.8   200.9
 96 JAN 29  29:03:00:00     534    6.1      52    1.2      205.6 -105.7   -5.8  146.0   -5.8   200.4
 96 JAN 29  29:04:00:00     539    6.2      49   -0.1      205.6 -105.7   -5.8  146.0   -5.8   199.8
 96 JAN 29  29:05:00:00     546    6.2      48   -0.7      205.6 -105.7   -5.8  146.0   -5.8   199.3
 96 JAN 29  29:06:00:00     537    5.8      48    0.0      205.5 -105.7   -5.7  146.0   -5.8   198.7
 96 JAN 29  29:07:00:00     560    4.3      49    0.4      205.5 -105.7   -5.7  146.0   -5.8   198.2
 96 JAN 29  29:08:00:00     560    4.4      50    1.0      205.5 -105.7   -5.7  146.0   -5.8   197.6
 96 JAN 29  29:09:00:00     562    4.4      50    0.6      205.4 -105.8   -5.7  146.0   -5.8   197.1
 96 JAN 29  29:10:00:00     572    4.0      50    0.3      205.4 -105.8   -5.6  146.0   -5.8   196.5
 96 JAN 29  29:11:00:00     570    4.1      49   -0.5      205.4 -105.8   -5.6  146.0   -5.8   196.0
 96 JAN 29  29:12:00:00     556    4.4      50   -0.2      205.4 -105.8   -5.6  146.0   -5.8   195.4
 96 JAN 29  29:13:00:00     545    4.8      50    0.7      205.3 -105.8   -5.6  146.0   -5.8   194.9
 96 JAN 29  29:14:00:00     540    4.6      47    0.2      205.3 -105.8   -5.5  146.0   -5.8   194.3
 96 JAN 29  29:15:00:00     541    3.9      51    0.5      205.3 -105.8   -5.5  146.0   -5.8   193.8
 96 JAN 29  29:16:00:00     552    4.0      54    0.6      205.2 -105.8   -5.5  146.0   -5.8   193.2
 96 JAN 29  29:17:00:00     558    3.6      57    0.7      205.2 -105.8   -5.4  146.0   -5.8   192.7
 96 JAN 29  29:18:00:00     544    3.7      51    0.7      205.2 -105.8   -5.4  146.0   -5.9   192.1
 96 JAN 29  29:19:00:00     529    3.4      47    0.9      205.1 -105.9   -5.4  146.0   -5.9   191.6
 96 JAN 29  29:20:00:00     509    3.9      44    0.2      205.1 -105.9   -5.4  146.0   -5.9   191.1
 96 JAN 29  29:21:00:00     507    4.0      43    0.2      205.1 -105.9   -5.3  146.0   -5.9   190.5
 96 JAN 29  29:22:00:00     492    4.1      40   -0.1      205.0 -105.9   -5.3  146.0   -5.9   190.0
 96 JAN 29  29:23:00:00     490    4.9      37   -0.5      205.0 -105.9   -5.3  146.0   -5.9   189.4
 96 JAN 30  30:00:00:00     491    5.5      38   -0.3      205.0 -105.9   -5.3  146.0   -5.9   188.9
 96 JAN 30  30:01:00:00     498    6.3      41   -0.1      204.9 -105.9   -5.2  146.0   -5.9   188.3
 96 JAN 30  30:02:00:00     509    6.7      45    0.3      204.9 -105.9   -5.2  146.0   -5.9   187.8
 96 JAN 30  30:03:00:00     522    6.1      47    0.6      204.9 -105.9   -5.2  146.0   -5.9   187.2
 96 JAN 30  30:04:00:00     571    4.6      54   -0.1      204.8 -105.9   -5.1  146.0   -5.9   186.7
 96 JAN 30  30:05:00:00     593    3.5      57   -0.5      204.8 -105.9   -5.1  146.0   -5.9   186.1
 96 JAN 30  30:06:00:00     582    3.4      57    0.2      204.8 -105.9   -5.1  146.0   -5.9   185.6
 96 JAN 30  30:07:00:00     562    3.7      55    0.4      204.7 -106.0   -5.1  146.0   -5.9   185.0
 96 JAN 30  30:08:00:00     560    3.4      53    0.3      204.7 -106.0   -5.0  146.0   -5.9   184.5
 96 JAN 30  30:09:00:00     544    3.3      51    0.1      204.7 -106.0   -5.0  146.0   -5.9   183.9
 96 JAN 30  30:10:00:00     530    2.6      49    0.1      204.7 -106.0   -5.0  146.1   -5.9   183.4
 96 JAN 30  30:11:00:00     524    2.9      48   -0.3      204.6 -106.0   -4.9  146.1   -5.9   182.8
 96 JAN 30  30:12:00:00     518    3.5      47   -0.8      204.6 -106.0   -4.9  146.1   -5.9   182.3
 96 JAN 30  30:13:00:00     513    3.6      45   -0.2      204.6 -106.0   -4.9  146.1   -5.9   181.7
 96 JAN 30  30:14:00:00     511    3.4      43   -0.3      204.5 -106.0   -4.9  146.1   -5.9   181.2
 96 JAN 30  30:15:00:00     507    3.4      43   -0.3      204.5 -106.0   -4.8  146.1   -5.9   180.6
 96 JAN 30  30:16:00:00     507    2.9      44    0.0      204.5 -106.0   -4.8  146.1   -5.9   180.1
 96 JAN 30  30:17:00:00     521    3.1      48   -0.1      204.4 -106.0   -4.8  146.1   -5.9   179.5
 96 JAN 30  30:18:00:00     513    3.1      46   -0.5      204.4 -106.0   -4.8  146.1   -5.9   179.0
 96 JAN 30  30:19:00:00     513    2.6      45   -0.8      204.4 -106.0   -4.7  146.1   -5.9   178.4
 96 JAN 30  30:20:00:00     514    2.9      45   -1.1      204.3 -106.0   -4.7  146.1   -5.9   177.9
 96 JAN 30  30:21:00:00     518    3.4      46   -0.7      204.3 -106.0   -4.7  146.1   -5.9   177.3
 96 JAN 30  30:22:00:00     519    3.9      46   -0.3      204.3 -106.0   -4.6  146.1   -5.9   176.8
 96 JAN 30  30:23:00:00     518    3.9      46   -0.4      204.2 -106.1   -4.6  146.1   -5.9   176.2
 96 JAN 31  31:00:00:00     503    4.4      41   -1.2      204.2 -106.1   -4.6  146.1   -5.9   175.7
 96 JAN 31  31:01:00:00     500    4.2      39   -0.9      204.2 -106.1   -4.6  146.1   -5.9   175.1
 96 JAN 31  31:02:00:00     505    4.0      42   -0.6      204.2 -106.1   -4.5  146.1   -6.0   174.6
 96 JAN 31  31:03:00:00     505    3.7      42   -0.5      204.1 -106.1   -4.5  146.1   -6.0   174.0
 96 JAN 31  31:04:00:00     509    3.7      44   -0.2      204.1 -106.1   -4.5  146.1   -6.0   173.5
 96 JAN 31  31:05:00:00     494    3.8      41    0.1      204.1 -106.1   -4.4  146.1   -6.0   172.9
 96 JAN 31  31:06:00:00     493    3.2      41    0.3      204.0 -106.1   -4.4  146.1   -6.0   172.4
 96 JAN 31  31:07:00:00     497    3.3      41   -0.1      204.0 -106.1   -4.4  146.1   -6.0   171.8
 96 JAN 31  31:08:00:00     500    3.9      41    0.1      204.0 -106.1   -4.4  146.1   -6.0   171.3
 96 JAN 31  31:09:00:00     508    4.7      46    1.0      203.9 -106.1   -4.3  146.1   -6.0   170.7
 96 JAN 31  31:10:00:00     509    5.3      46    0.9      203.9 -106.1   -4.3  146.1   -6.0   170.2
 96 JAN 31  31:11:00:00     528    4.6      49    0.3      203.9 -106.1   -4.3  146.1   -6.0   169.6
 96 JAN 31  31:12:00:00     535    3.5      50   -0.1      203.8 -106.1   -4.3  146.1   -6.0   169.1
 96 JAN 31  31:13:00:00     553    3.8      52   -0.2      203.8 -106.1   -4.2  146.1   -6.0   168.5
 96 JAN 31  31:14:00:00     555    3.3      52    0.5      203.8 -106.1   -4.2  146.1   -6.0   168.0
 96 JAN 31  31:15:00:00     549    3.3      51    0.2      203.8 -106.1   -4.2  146.1   -6.0   167.4
 96 JAN 31  31:16:00:00     552    2.8      51   -0.2      203.7 -106.1   -4.1  146.1   -6.0   166.9
 96 JAN 31  31:17:00:00     531    4.2      47   -0.3      203.7 -106.1   -4.1  146.1   -6.0   166.3
 96 JAN 31  31:18:00:00     525    5.3      46    0.2      203.7 -106.1   -4.1  146.1   -6.0   165.8
 96 JAN 31  31:19:00:00     528    4.4      47    0.7      203.6 -106.1   -4.1  146.1   -6.0   165.2
 96 JAN 31  31:20:00:00     515    4.1      44    0.7      203.6 -106.1   -4.0  146.1   -6.0   164.7
 96 JAN 31  31:21:00:00     494    4.2      39    0.6      203.6 -106.1   -4.0  146.1   -6.0   164.1
 96 JAN 31  31:22:00:00     490    4.6      38    0.7      203.5 -106.1   -4.0  146.1   -6.0   163.6
 96 JAN 31  31:23:00:00     483    4.2      37    0.2      203.5 -106.1   -3.9  146.1   -6.0   163.0
 96 FEB  1  32:00:00:00     497    2.9      40    0.0      203.5 -106.1   -3.9  146.1   -6.0   162.5
 96 FEB  1  32:01:00:00     489    2.9      40   -0.1      203.5 -106.1   -3.9  146.1   -6.0   161.9
 96 FEB  1  32:02:00:00     473    3.7      37   -0.4      203.4 -106.1   -3.9  146.1   -6.0   161.4
 96 FEB  1  32:03:00:00     475    4.1      36   -0.4      203.4 -106.1   -3.8  146.1   -6.0   160.8
 96 FEB  1  32:04:00:00     472    3.9      38    0.3      203.4 -106.1   -3.8  146.1   -6.0   160.3
 96 FEB  1  32:05:00:00     475    4.4      37    0.1      203.3 -106.1   -3.8  146.1   -6.0   159.7
 96 FEB  1  32:06:00:00     465    3.9      39    0.3      203.3 -106.1   -3.7  146.1   -6.0   159.2
 96 FEB  1  32:07:00:00     461    3.7      40    0.3      203.3 -106.1   -3.7  146.1   -6.0   158.6
 96 FEB  1  32:08:00:00     459    4.2      40    0.8      203.2 -106.1   -3.7  146.1   -6.0   158.1
 96 FEB  1  32:09:00:00     459    4.4      39    1.1      203.2 -106.1   -3.7  146.1   -6.0   157.5
 96 FEB  1  32:10:00:00     453    4.5      37    0.8      203.2 -106.1   -3.6  146.1   -6.0   157.0
 96 FEB  1  32:11:00:00     442    4.4      37    0.5      203.2 -106.1   -3.6  146.1   -6.0   156.4
 96 FEB  1  32:12:00:00     432    4.8      37   -0.3      203.1 -106.1   -3.6  146.1   -6.1   155.9
 96 FEB  1  32:13:00:00     425    6.1      35    0.1      203.1 -106.1   -3.5  146.1   -6.1   155.3
 96 FEB  1  32:14:00:00     428    7.5      34    1.5      203.1 -106.1   -3.5  146.1   -6.1   154.8
 96 FEB  1  32:15:00:00     435    5.5      36    0.9      203.0 -106.1   -3.5  146.1   -6.1   154.2
 96 FEB  1  32:16:00:00     434    3.8      33   -0.2      203.0 -106.1   -3.5  146.1   -6.1   153.7
 96 FEB  1  32:17:00:00     429    3.6      32   -0.5      203.0 -106.1   -3.4  146.1   -6.1   153.1
 96 FEB  1  32:18:00:00     423    4.8      35    0.0      202.9 -106.1   -3.4  146.1   -6.1   152.6
 96 FEB  1  32:19:00:00     420    4.6      35    0.6      202.9 -106.1   -3.4  146.1   -6.1   152.0
 96 FEB  1  32:20:00:00     433    5.5      38    0.9      202.9 -106.1   -3.4  146.1   -6.1   151.5
 96 FEB  1  32:21:00:00     448    5.3      40    1.8      202.9 -106.1   -3.3  146.1   -6.1   150.9
 96 FEB  1  32:22:00:00     466    6.2      39    1.9      202.8 -106.1   -3.3  146.1   -6.1   150.4
 96 FEB  1  32:23:00:00     464    6.7      37    1.3      202.8 -106.1   -3.3  146.1   -6.1   149.8
 96 FEB  2  33:00:00:00     466    9.1      36    1.5      202.8 -106.1   -3.2  146.1   -6.1   149.3
 96 FEB  2  33:01:00:00     469    9.1      37    1.4      202.7 -106.0   -3.2  146.1   -6.1   148.7
 96 FEB  2  33:02:00:00     470    8.0      38    0.8      202.7 -106.0   -3.2  146.1   -6.1   148.2
 96 FEB  2  33:03:00:00     461    7.9      38    0.6      202.7 -106.0   -3.2  146.1   -6.1   147.6
 96 FEB  2  33:04:00:00     451    8.1      38    0.8      202.7 -106.0   -3.1  146.1   -6.1   147.1
 96 FEB  2  33:05:00:00     428    7.4      36    0.1      202.6 -106.0   -3.1  146.1   -6.1   146.5
 96 FEB  2  33:06:00:00     441    7.8      37    0.7      202.6 -106.0   -3.1  146.1   -6.1   146.0
 96 FEB  2  33:07:00:00     451    6.2      40   -0.1      202.6 -106.0   -3.0  146.1   -6.1   145.4
 96 FEB  2  33:08:00:00     447    5.9      40   -0.8      202.5 -106.0   -3.0  146.1   -6.1   144.9
 96 FEB  2  33:09:00:00     437    5.5      41   -0.2      202.5 -106.0   -3.0  146.1   -6.1   144.3
 96 FEB  2  33:10:00:00     468    4.5      43   -0.8      202.5 -106.0   -3.0  146.1   -6.1   143.8
 96 FEB  2  33:11:00:00     471    3.4      44   -0.8      202.5 -106.0   -2.9  146.1   -6.1   143.2
 96 FEB  2  33:12:00:00     477    3.6      45   -0.2      202.4 -106.0   -2.9  146.1   -6.1   142.7
 96 FEB  2  33:13:00:00     484    3.7      45   -0.4      202.4 -106.0   -2.9  146.1   -6.1   142.1
 96 FEB  2  33:14:00:00     480    4.1      45   -0.2      202.4 -106.0   -2.8  146.1   -6.1   141.6
 96 FEB  2  33:15:00:00     507    4.9      52   -0.5      202.3 -106.0   -2.8  146.1   -6.1   141.0
 96 FEB  2  33:16:00:00     518    4.8      49   -0.4      202.3 -106.0   -2.8  146.1   -6.1   140.5
 96 FEB  2  33:17:00:00     524    4.4      48   -0.5      202.3 -105.9   -2.8  146.1   -6.1   139.9
 96 FEB  2  33:18:00:00     520    4.5      47   -0.4      202.3 -105.9   -2.7  146.1   -6.1   139.4
 96 FEB  2  33:19:00:00     512    4.0      47   -0.2      202.2 -105.9   -2.7  146.1   -6.1   138.8
 96 FEB  2  33:20:00:00     508    3.9      46   -0.5      202.2 -105.9   -2.7  146.1   -6.1   138.3
 96 FEB  2  33:21:00:00     506    4.0      46   -0.3      202.2 -105.9   -2.6  146.1   -6.1   137.7
 96 FEB  2  33:22:00:00     504    4.0      45    0.0      202.1 -105.9   -2.6  146.1   -6.1   137.2
 96 FEB  2  33:23:00:00     503    4.1      45    0.4      202.1 -105.9   -2.6  146.1   -6.1   136.6
 96 FEB  3  34:00:00:00     491    4.0      39    0.6      202.1 -105.9   -2.5  146.1   -6.2   136.1
 96 FEB  3  34:01:00:00     490    3.5      39    0.8      202.1 -105.9   -2.5  146.1   -6.2   135.5
 96 FEB  3  34:02:00:00     497    2.5      41    1.0      202.0 -105.9   -2.5  146.1   -6.2   135.0
 96 FEB  3  34:03:00:00     494    2.9      38    0.5      202.0 -105.9   -2.5  146.1   -6.2   134.4
 96 FEB  3  34:04:00:00     488    2.6      36    0.4      202.0 -105.8   -2.4  146.1   -6.2   133.9
 96 FEB  3  34:05:00:00     483    2.6      36   -0.4      202.0 -105.8   -2.4  146.1   -6.2   133.3
 96 FEB  3  34:06:00:00     480    2.8      34   -0.7      201.9 -105.8   -2.4  146.1   -6.2   132.8
 96 FEB  3  34:07:00:00     477    2.9      36   -0.2      201.9 -105.8   -2.3  146.1   -6.2   132.2
 96 FEB  3  34:08:00:00     477    2.7      36    0.7      201.9 -105.8   -2.3  146.1   -6.2   131.7
 96 FEB  3  34:09:00:00     483    2.8      35    0.9      201.8 -105.8   -2.3  146.1   -6.2   131.1
 96 FEB  3  34:10:00:00     482    2.9      35    0.3      201.8 -105.8   -2.3  146.1   -6.2   130.6
 96 FEB  3  34:11:00:00     481    3.3      34   -0.1      201.8 -105.8   -2.2  146.2   -6.2   130.0
 96 FEB  3  34:12:00:00     482    3.3      33    0.2      201.8 -105.8   -2.2  146.2   -6.2   129.5
 96 FEB  3  34:13:00:00     482    2.8      34   -0.2      201.7 -105.7   -2.2  146.2   -6.2   128.9
 96 FEB  3  34:14:00:00     480    2.9      36   -0.4      201.7 -105.7   -2.1  146.2   -6.2   128.4
 96 FEB  3  34:15:00:00     467    3.6      40   -0.1      201.7 -105.7   -2.1  146.2   -6.2   127.8
 96 FEB  3  34:16:00:00     450    4.2      42   -0.2      201.7 -105.7   -2.1  146.2   -6.2   127.3
 96 FEB  3  34:17:00:00     437    4.2      41   -0.6      201.6 -105.7   -2.1  146.2   -6.2   126.7
 96 FEB  3  34:18:00:00     440    4.0      40   -0.8      201.6 -105.7   -2.0  146.2   -6.2   126.2
 96 FEB  3  34:19:00:00     439    5.0      39   -1.4      201.6 -105.7   -2.0  146.2   -6.2   125.6
 96 FEB  3  34:20:00:00     426    5.5      37   -1.7      201.5 -105.7   -2.0  146.2   -6.2   125.1
 96 FEB  3  34:21:00:00     421    6.2      36   -1.9      201.5 -105.6   -1.9  146.2   -6.2   124.5
 96 FEB  3  34:22:00:00     419    7.0      34   -2.1      201.5 -105.6   -1.9  146.2   -6.2   124.0
 96 FEB  3  34:23:00:00     405    7.9      30   -1.8      201.5 -105.6   -1.9  146.2   -6.2   123.4
 96 FEB  4  35:00:00:00     403    7.3      32   -1.7      201.4 -105.6   -1.9  146.2   -6.2   122.9
 96 FEB  4  35:01:00:00     404    9.7      30   -1.5      201.4 -105.6   -1.8  146.2   -6.2   122.3
 96 FEB  4  35:02:00:00     403    9.2      29   -1.6      201.4 -105.6   -1.8  146.2   -6.2   121.8
 96 FEB  4  35:03:00:00     395    7.9      29   -1.1      201.4 -105.6   -1.8  146.2   -6.2   121.2
 96 FEB  4  35:04:00:00      -1   -1.0      -1   99.0      201.3 -105.5   -1.7  146.2   -6.2   120.7
 96 FEB  4  35:05:00:00      -1   -1.0      -1   99.0      201.3 -105.5   -1.7  146.2   -6.2   120.1
 96 FEB  4  35:06:00:00     396    5.7      27   -0.8      201.3 -105.5   -1.7  146.2   -6.2   119.6
 96 FEB  4  35:07:00:00     393    6.0      27   -0.8      201.3 -105.5   -1.7  146.2   -6.2   119.0
 96 FEB  4  35:08:00:00     390    6.0      26   -0.5      201.2 -105.5   -1.6  146.2   -6.2   118.5
 96 FEB  4  35:09:00:00     390    6.3      25   -1.0      201.2 -105.5   -1.6  146.2   -6.2   117.9
 96 FEB  4  35:10:00:00     393    7.7      27   -0.7      201.2 -105.4   -1.6  146.2   -6.2   117.4
 96 FEB  4  35:11:00:00     389    7.6      29    0.1      201.2 -105.4   -1.5  146.2   -6.2   116.8
 96 FEB  4  35:12:00:00     389    7.0      28    0.0      201.1 -105.4   -1.5  146.2   -6.3   116.3
 96 FEB  4  35:13:00:00     388    7.5      28    0.2      201.1 -105.4   -1.5  146.2   -6.3   115.7
 96 FEB  4  35:14:00:00     380    8.0      27    1.3      201.1 -105.4   -1.4  146.2   -6.3   115.2
 96 FEB  4  35:15:00:00     388    8.0      29    1.2      201.1 -105.4   -1.4  146.2   -6.3   114.6
 96 FEB  4  35:16:00:00     391    7.7      29    0.8      201.0 -105.3   -1.4  146.2   -6.3   114.1
 96 FEB  4  35:17:00:00     406    8.1      30   -0.4      201.0 -105.3   -1.4  146.2   -6.3   113.5
 96 FEB  4  35:18:00:00     403    7.8      29   -0.1      201.0 -105.3   -1.3  146.2   -6.3   113.0
 96 FEB  4  35:19:00:00     394    7.6      26   -0.7      201.0 -105.3   -1.3  146.2   -6.3   112.4
 96 FEB  4  35:20:00:00     392    7.4      25   -1.0      200.9 -105.3   -1.3  146.2   -6.3   111.9
 96 FEB  4  35:21:00:00     393    6.9      25   -1.8      200.9 -105.3   -1.2  146.2   -6.3   111.3
 96 FEB  4  35:22:00:00     387    7.2      26   -1.2      200.9 -105.2   -1.2  146.2   -6.3   110.8
 96 FEB  4  35:23:00:00     394    6.1      27   -1.2      200.9 -105.2   -1.2  146.2   -6.3   110.2
 96 FEB  5  36:00:00:00     395    6.1      27   -0.7      200.8 -105.2   -1.2  146.2   -6.3   109.7
 96 FEB  5  36:01:00:00     388    7.6      26   -0.8      200.8 -105.2   -1.1  146.2   -6.3   109.1
 96 FEB  5  36:02:00:00     386    8.6      26   -0.8      200.8 -105.2   -1.1  146.2   -6.3   108.6
 96 FEB  5  36:03:00:00     378    8.0      26   -0.5      200.8 -105.1   -1.1  146.2   -6.3   108.0
 96 FEB  5  36:04:00:00     387    6.6      26   -0.2      200.7 -105.1   -1.0  146.2   -6.3   107.5
 96 FEB  5  36:05:00:00     384    6.2      25   -0.2      200.7 -105.1   -1.0  146.2   -6.3   106.9
 96 FEB  5  36:06:00:00     382    5.9      26   -0.2      200.7 -105.1   -1.0  146.2   -6.3   106.4
 96 FEB  5  36:07:00:00     381    5.7      25    0.0      200.7 -105.1   -1.0  146.2   -6.3   105.8
 96 FEB  5  36:08:00:00     374    6.3      26   -0.3      200.6 -105.0   -0.9  146.2   -6.3   105.3
 96 FEB  5  36:09:00:00     377    6.0      25   -0.3      200.6 -105.0   -0.9  146.2   -6.3   104.7
 96 FEB  5  36:10:00:00     373    6.5      24   -0.2      200.6 -105.0   -0.9  146.2   -6.3   104.2
 96 FEB  5  36:11:00:00     371    6.5      23   -0.5      200.6 -105.0   -0.8  146.2   -6.3   103.6
 96 FEB  5  36:12:00:00     377    5.7      25   -0.3      200.5 -104.9   -0.8  146.2   -6.3   103.1
 96 FEB  5  36:13:00:00     391    4.9      29   -0.3      200.5 -104.9   -0.8  146.2   -6.3   102.5
 96 FEB  5  36:14:00:00     392    5.2      28    0.7      200.5 -104.9   -0.7  146.2   -6.3   102.0
 96 FEB  5  36:15:00:00     392    5.1      27    0.9      200.5 -104.9   -0.7  146.2   -6.3   101.4
 96 FEB  5  36:16:00:00     391    5.6      27    0.5      200.5 -104.9   -0.7  146.2   -6.3   100.9
 96 FEB  5  36:17:00:00     392    6.1      26   -0.3      200.4 -104.8   -0.7  146.2   -6.3   100.3
 96 FEB  5  36:18:00:00     380    5.8      27   -0.2      200.4 -104.8   -0.6  146.2   -6.3    99.8
 96 FEB  5  36:19:00:00     379    6.6      26   -0.4      200.4 -104.8   -0.6  146.2   -6.3    99.2
 96 FEB  5  36:20:00:00     369    7.5      24   -0.4      200.4 -104.8   -0.6  146.2   -6.3    98.7
 96 FEB  5  36:21:00:00     362    8.1      23   -1.1      200.3 -104.7   -0.5  146.2   -6.3    98.1
 96 FEB  5  36:22:00:00     357    8.7      23   -0.9      200.3 -104.7   -0.5  146.2   -6.3    97.6
 96 FEB  5  36:23:00:00     353    9.5      23   -0.7      200.3 -104.7   -0.5  146.2   -6.3    97.0
 96 FEB  6  37:00:00:00     347    9.9      23   -0.2      200.3 -104.7   -0.5  146.2   -6.3    96.5
 96 FEB  6  37:01:00:00     349   10.4      23   -0.6      200.2 -104.6   -0.4  146.2   -6.3    95.9
 96 FEB  6  37:02:00:00     362    9.7      22   -1.3      200.2 -104.6   -0.4  146.2   -6.3    95.4
 96 FEB  6  37:03:00:00     373    8.6      23   -1.7      200.2 -104.6   -0.4  146.2   -6.4    94.8
 96 FEB  6  37:04:00:00     375    7.3      23   -1.8      200.2 -104.6   -0.3  146.2   -6.4    94.3
 96 FEB  6  37:05:00:00     386    8.5      27   -0.2      200.2 -104.5   -0.3  146.2   -6.4    93.7
 96 FEB  6  37:06:00:00     383    9.7      30    0.8      200.1 -104.5   -0.3  146.2   -6.4    93.2
 96 FEB  6  37:07:00:00     366   11.2      30    1.2      200.1 -104.5   -0.3  146.2   -6.4    92.6
 96 FEB  6  37:08:00:00     364   11.1      31    0.9      200.1 -104.5   -0.2  146.2   -6.4    92.1
 96 FEB  6  37:09:00:00     368   11.0      29    1.4      200.1 -104.4   -0.2  146.2   -6.4    91.5
 96 FEB  6  37:10:00:00     361   10.8      30    1.2      200.0 -104.4   -0.2  146.2   -6.4    91.0
 96 FEB  6  37:11:00:00     349   11.7      27    0.5      200.0 -104.4   -0.1  146.2   -6.4    90.4
 96 FEB  6  37:12:00:00     350   10.2      27   -0.1      200.0 -104.3   -0.1  146.2   -6.4    89.9
 96 FEB  6  37:13:00:00     344   10.5      25    0.2      200.0 -104.3   -0.1  146.2   -6.4    89.3
 96 FEB  6  37:14:00:00     344   10.2      25   -0.3      200.0 -104.3    0.0  146.2   -6.4    88.8
 96 FEB  6  37:15:00:00     344    9.1      25   -1.0      199.9 -104.3    0.0  146.2   -6.4    88.2
 96 FEB  6  37:16:00:00     340    9.4      24   -0.8      199.9 -104.2    0.0  146.2   -6.4    87.7
 96 FEB  6  37:17:00:00     338    9.1      23   -0.4      199.9 -104.2    0.0  146.2   -6.4    87.1
 96 FEB  6  37:18:00:00     344    7.5      25   -0.4      199.9 -104.2    0.1  146.2   -6.4    86.6
 96 FEB  6  37:19:00:00     370   14.5      24    2.4      199.8 -104.1    0.1  146.2   -6.4    86.0
 96 FEB  6  37:20:00:00     371   13.1      27    2.3      199.8 -104.1    0.1  146.2   -6.4    85.5
 96 FEB  6  37:21:00:00     376   11.2      29    2.0      199.8 -104.1    0.2  146.2   -6.4    84.9
 96 FEB  6  37:22:00:00     380   10.6      30    1.8      199.8 -104.1    0.2  146.2   -6.4    84.4
 96 FEB  6  37:23:00:00     370   10.3      29    0.9      199.8 -104.0    0.2  146.2   -6.4    83.8
 96 FEB  7  38:00:00:00     366    9.7      30    0.5      199.7 -104.0    0.2  146.2   -6.4    83.3
 96 FEB  7  38:01:00:00     366   10.3      30   -0.1      199.7 -104.0    0.3  146.2   -6.4    82.7
 96 FEB  7  38:02:00:00     357   11.9      27    0.8      199.7 -103.9    0.3  146.2   -6.4    82.2
 96 FEB  7  38:03:00:00     350   12.4      28    0.9      199.7 -103.9    0.3  146.3   -6.4    81.6
 96 FEB  7  38:04:00:00     350   13.9      27    1.3      199.7 -103.9    0.4  146.3   -6.4    81.1
 96 FEB  7  38:05:00:00     359   15.2      29    1.4      199.6 -103.8    0.4  146.3   -6.4    80.5
 96 FEB  7  38:06:00:00     366   15.3      29    1.3      199.6 -103.8    0.4  146.3   -6.4    80.0
 96 FEB  7  38:07:00:00     380   13.2      28    1.2      199.6 -103.8    0.5  146.3   -6.4    79.4
 96 FEB  7  38:08:00:00     375   12.5      27    1.0      199.6 -103.7    0.5  146.3   -6.4    78.9
 96 FEB  7  38:09:00:00     375   12.6      27    1.0      199.6 -103.7    0.5  146.3   -6.4    78.3
 96 FEB  7  38:10:00:00     368   14.1      26    1.3      199.5 -103.7    0.5  146.3   -6.4    77.8
 96 FEB  7  38:11:00:00     369   12.2      27    0.3      199.5 -103.6    0.6  146.3   -6.4    77.2
 96 FEB  7  38:12:00:00     356   11.1      26   -0.7      199.5 -103.6    0.6  146.3   -6.4    76.7
 96 FEB  7  38:13:00:00     351    9.4      27   -0.5      199.5 -103.6    0.6  146.3   -6.4    76.1
 96 FEB  7  38:14:00:00     364    8.6      28   -0.4      199.5 -103.5    0.7  146.3   -6.4    75.6
 96 FEB  7  38:15:00:00     361    8.9      29   -0.5      199.4 -103.5    0.7  146.3   -6.4    75.0
 96 FEB  7  38:16:00:00     355   10.0      29   -0.7      199.4 -103.5    0.7  146.3   -6.4    74.5
 96 FEB  7  38:17:00:00     362   11.3      29   -1.0      199.4 -103.4    0.8  146.3   -6.4    73.9
 96 FEB  7  38:18:00:00     367    8.8      33    0.4      199.4 -103.4    0.8  146.3   -6.4    73.4
 96 FEB  7  38:19:00:00     360    9.2      31    0.4      199.4 -103.4    0.8  146.3   -6.4    72.8
 96 FEB  7  38:20:00:00     382    8.6      35    0.0      199.3 -103.3    0.8  146.3   -6.5    72.3
 96 FEB  7  38:21:00:00     403    8.7      34   -0.8      199.3 -103.3    0.9  146.3   -6.5    71.7
 96 FEB  7  38:22:00:00     401    8.1      33   -1.0      199.3 -103.3    0.9  146.3   -6.5    71.2
 96 FEB  7  38:23:00:00     400    7.6      33   -1.1      199.3 -103.2    0.9  146.3   -6.5    70.6
 96 FEB  8  39:00:00:00     398    8.9      32   -1.6      199.3 -103.2    1.0  146.3   -6.5    70.1
 96 FEB  8  39:01:00:00     395   11.1      33   -0.8      199.2 -103.1    1.0  146.3   -6.5    69.5
 96 FEB  8  39:02:00:00     413   10.4      40   -0.4      199.2 -103.1    1.0  146.3   -6.5    69.0
 96 FEB  8  39:03:00:00     407   10.4      38   -0.1      199.2 -103.1    1.0  146.3   -6.5    68.4
 96 FEB  8  39:04:00:00     416    8.3      44    0.0      199.2 -103.0    1.1  146.3   -6.5    67.9
 96 FEB  8  39:05:00:00     424    6.9      50    0.4      199.2 -103.0    1.1  146.3   -6.5    67.3
 96 FEB  8  39:06:00:00     421    7.4      48   -0.1      199.1 -103.0    1.1  146.3   -6.5    66.8
 96 FEB  8  39:07:00:00     404    9.0      44   -0.5      199.1 -102.9    1.2  146.3   -6.5    66.2
 96 FEB  8  39:08:00:00     388    9.9      38   -0.9      199.1 -102.9    1.2  146.3   -6.5    65.7
 96 FEB  8  39:09:00:00     392   11.0      32   -1.7      199.1 -102.8    1.2  146.3   -6.5    65.1
 96 FEB  8  39:10:00:00     397    7.4      33   -1.5      199.1 -102.8    1.3  146.3   -6.5    64.6
 96 FEB  8  39:11:00:00     424    3.8      39   -1.1      199.1 -102.8    1.3  146.3   -6.5    64.0
 96 FEB  8  39:12:00:00     432    7.0      38   -2.3      199.0 -102.7    1.3  146.3   -6.5    63.5
 96 FEB  8  39:13:00:00     428    9.0      37   -1.8      199.0 -102.7    1.3  146.3   -6.5    62.9
 96 FEB  8  39:14:00:00     405   13.2      29   -1.2      199.0 -102.6    1.4  146.3   -6.5    62.4
 96 FEB  8  39:15:00:00     399   10.6      27   -0.9      199.0 -102.6    1.4  146.3   -6.5    61.8
 96 FEB  8  39:16:00:00     406   10.4      29   -1.0      199.0 -102.6    1.4  146.3   -6.5    61.3
 96 FEB  8  39:17:00:00     410    9.3      30   -1.2      198.9 -102.5    1.5  146.3   -6.5    60.7
 96 FEB  8  39:18:00:00     412    9.4      31   -1.5      198.9 -102.5    1.5  146.3   -6.5    60.2
 96 FEB  8  39:19:00:00     402    9.9      30   -1.5      198.9 -102.4    1.5  146.3   -6.5    59.6
 96 FEB  8  39:20:00:00     401    9.6      29   -1.8      198.9 -102.4    1.5  146.3   -6.5    59.1
 96 FEB  8  39:21:00:00     396    8.5      31   -1.7      198.9 -102.4    1.6  146.3   -6.5    58.5
 96 FEB  8  39:22:00:00     392   10.3      33   -1.0      198.9 -102.3    1.6  146.3   -6.5    58.0
 96 FEB  8  39:23:00:00     393   10.6      35   -0.9      198.8 -102.3    1.6  146.3   -6.5    57.4
 96 FEB  9  40:00:00:00     384   10.4      37   -1.1      198.8 -102.2    1.7  146.3   -6.5    56.9
 96 FEB  9  40:01:00:00     396    9.3      40   -1.4      198.8 -102.2    1.7  146.3   -6.5    56.3
 96 FEB  9  40:02:00:00     411    6.4      43   -1.9      198.8 -102.1    1.7  146.3   -6.5    55.8
 96 FEB  9  40:03:00:00     411    4.9      43   -1.4      198.8 -102.1    1.8  146.3   -6.5    55.2
 96 FEB  9  40:04:00:00     402    6.2      39   -1.7      198.8 -102.1    1.8  146.3   -6.5    54.7
 96 FEB  9  40:05:00:00     396    6.5      39   -1.0      198.7 -102.0    1.8  146.3   -6.5    54.1
 96 FEB  9  40:06:00:00     393    7.1      36   -1.0      198.7 -102.0    1.8  146.3   -6.5    53.6
 96 FEB  9  40:07:00:00     395    5.6      34   -0.4      198.7 -101.9    1.9  146.3   -6.5    53.0
 96 FEB  9  40:08:00:00     401    6.5      32   -1.1      198.7 -101.9    1.9  146.3   -6.5    52.5
 96 FEB  9  40:09:00:00     399    6.7      30   -0.3      198.7 -101.8    1.9  146.3   -6.5    51.9
 96 FEB  9  40:10:00:00     395    6.1      28    0.4      198.7 -101.8    2.0  146.3   -6.5    51.4
 96 FEB  9  40:11:00:00     398    6.2      27    0.6      198.6 -101.7    2.0  146.3   -6.5    50.8
 96 FEB  9  40:12:00:00     403    6.9      29   -0.3      198.6 -101.7    2.0  146.3   -6.5    50.3
 96 FEB  9  40:13:00:00     400    7.0      29    0.2      198.6 -101.6    2.0  146.3   -6.5    49.7
 96 FEB  9  40:14:00:00     399    6.6      28    0.9      198.6 -101.6    2.1  146.3   -6.5    49.2
 96 FEB  9  40:15:00:00     396    6.1      27    0.7      198.6 -101.6    2.1  146.3   -6.5    48.6
 96 FEB  9  40:16:00:00     395    5.8      27    0.1      198.6 -101.5    2.1  146.3   -6.6    48.1
 96 FEB  9  40:17:00:00     388    5.8      25    0.8      198.5 -101.5    2.2  146.3   -6.6    47.5
 96 FEB  9  40:18:00:00     383    8.4      24   -0.6      198.5 -101.4    2.2  146.3   -6.6    47.0
 96 FEB  9  40:19:00:00     366   10.3      22    0.2      198.5 -101.4    2.2  146.3   -6.6    46.4
 96 FEB  9  40:20:00:00     359   10.2      22    0.5      198.5 -101.3    2.3  146.3   -6.6    45.9
 96 FEB  9  40:21:00:00     357    9.1      21   -0.2      198.5 -101.3    2.3  146.3   -6.6    45.3
 96 FEB  9  40:22:00:00     349    7.9      20    1.3      198.5 -101.2    2.3  146.3   -6.6    44.8
 96 FEB  9  40:23:00:00     348    7.8      22    1.4      198.4 -101.2    2.3  146.3   -6.6    44.2
 96 FEB 10  41:00:00:00     349    8.8      23    0.5      198.4 -101.1    2.4  146.3   -6.6    43.7
 96 FEB 10  41:01:00:00     360   13.3      23    0.3      198.4 -101.1    2.4  146.3   -6.6    43.1
 96 FEB 10  41:02:00:00     358   13.7      21   -0.4      198.4 -101.0    2.4  146.3   -6.6    42.6
 96 FEB 10  41:03:00:00     369   10.7      23    0.9      198.4 -101.0    2.5  146.3   -6.6    42.0
 96 FEB 10  41:04:00:00     371   10.1      24    2.8      198.4 -100.9    2.5  146.3   -6.6    41.5
 96 FEB 10  41:05:00:00     382    9.8      27    3.0      198.4 -100.9    2.5  146.3   -6.6    40.9
 96 FEB 10  41:06:00:00     377    9.2      27    3.4      198.3 -100.8    2.5  146.3   -6.6    40.4
 96 FEB 10  41:07:00:00     379    8.9      29    4.1      198.3 -100.8    2.6  146.3   -6.6    39.8
 96 FEB 10  41:08:00:00     377    7.9      29    2.9      198.3 -100.7    2.6  146.3   -6.6    39.3
 96 FEB 10  41:09:00:00     381    7.7      29    2.7      198.3 -100.7    2.6  146.3   -6.6    38.7
 96 FEB 10  41:10:00:00     383    7.2      28    2.2      198.3 -100.6    2.7  146.3   -6.6    38.2
 96 FEB 10  41:11:00:00     386    7.8      28    2.0      198.3 -100.6    2.7  146.3   -6.6    37.6
 96 FEB 10  41:12:00:00     389    7.7      28    1.3      198.2 -100.5    2.7  146.3   -6.6    37.1
 96 FEB 10  41:13:00:00     404    7.8      31    0.4      198.2 -100.5    2.7  146.3   -6.6    36.5
 96 FEB 10  41:14:00:00     412    8.1      33    2.1      198.2 -100.4    2.8  146.4   -6.6    36.0
 96 FEB 10  41:15:00:00     413    9.1      34    2.5      198.2 -100.4    2.8  146.4   -6.6    35.4
 96 FEB 10  41:16:00:00     415   10.7      35    3.3      198.2 -100.3    2.8  146.4   -6.6    34.9
 96 FEB 10  41:17:00:00     408   12.3      34    3.3      198.2 -100.2    2.9  146.4   -6.6    34.3
 96 FEB 10  41:18:00:00     411   14.1      33    3.7      198.2 -100.2    2.9  146.4   -6.6    33.8
 96 FEB 10  41:19:00:00     427   10.6      37    3.6      198.1 -100.1    2.9  146.4   -6.6    33.2
 96 FEB 10  41:20:00:00     435    7.6      38    1.6      198.1 -100.1    3.0  146.4   -6.6    32.7
 96 FEB 10  41:21:00:00     458    6.7      41   -0.1      198.1 -100.0    3.0  146.4   -6.6    32.1
 96 FEB 10  41:22:00:00     477    6.2      49    0.6      198.1 -100.0    3.0  146.4   -6.6    31.6
 96 FEB 10  41:23:00:00     486    7.6      59    1.3      198.1  -99.9    3.0  146.4   -6.6    31.0
 96 FEB 11  42:00:00:00     485    9.1      54    0.9      198.1  -99.9    3.1  146.4   -6.6    30.5
 96 FEB 11  42:01:00:00     490    9.4      55   -0.5      198.1  -99.8    3.1  146.4   -6.6    29.9
 96 FEB 11  42:02:00:00     499    7.8      58   -0.7      198.0  -99.8    3.1  146.4   -6.6    29.4
 96 FEB 11  42:03:00:00     512    6.6      63   -1.0      198.0  -99.7    3.2  146.4   -6.6    28.9
 96 FEB 11  42:04:00:00     503    7.2      59   -0.9      198.0  -99.6    3.2  146.4   -6.6    28.3
 96 FEB 11  42:05:00:00     492    7.8      54   -0.7      198.0  -99.6    3.2  146.4   -6.6    27.8
 96 FEB 11  42:06:00:00     484    8.3      47   -0.8      198.0  -99.5    3.2  146.4   -6.6    27.2
 96 FEB 11  42:07:00:00     509    8.3      52   -0.4      198.0  -99.5    3.3  146.4   -6.6    26.7
 96 FEB 11  42:08:00:00     534    5.5      50    0.8      198.0  -99.4    3.3  146.4   -6.6    26.1
 96 FEB 11  42:09:00:00     554    5.2      49    0.8      197.9  -99.4    3.3  146.4   -6.6    25.6
 96 FEB 11  42:10:00:00     567    5.1      49    1.2      197.9  -99.3    3.4  146.4   -6.6    25.0
 96 FEB 11  42:11:00:00     567    4.6      50    0.6      197.9  -99.2    3.4  146.4   -6.6    24.5
 96 FEB 11  42:12:00:00     576    3.8      52   -0.3      197.9  -99.2    3.4  146.4   -6.6    23.9
 96 FEB 11  42:13:00:00     586    4.1      53    0.1      197.9  -99.1    3.4  146.4   -6.6    23.4
 96 FEB 11  42:14:00:00     582    4.0      52    0.6      197.9  -99.1    3.5  146.4   -6.6    22.8
 96 FEB 11  42:15:00:00     609    3.4      55    0.2      197.9  -99.0    3.5  146.4   -6.6    22.3
 96 FEB 11  42:16:00:00     606    3.6      53   -0.4      197.9  -98.9    3.5  146.4   -6.7    21.7
 96 FEB 11  42:17:00:00     614    3.1      52    0.5      197.8  -98.9    3.6  146.4   -6.7    21.2
 96 FEB 11  42:18:00:00     611    2.6      51    1.4      197.8  -98.8    3.6  146.4   -6.7    20.6
 96 FEB 11  42:19:00:00     603    3.0      50    1.4      197.8  -98.8    3.6  146.4   -6.7    20.1
 96 FEB 11  42:20:00:00     604    2.8      52    1.1      197.8  -98.7    3.7  146.4   -6.7    19.5
 96 FEB 11  42:21:00:00     595    3.2      48    0.7      197.8  -98.6    3.7  146.4   -6.7    19.0
 96 FEB 11  42:22:00:00     589    3.0      52   -0.4      197.8  -98.6    3.7  146.4   -6.7    18.4
 96 FEB 11  42:23:00:00     586    3.3      52    0.5      197.8  -98.5    3.7  146.4   -6.7    17.9
 96 FEB 12  43:00:00:00     571    3.4      53    0.6      197.7  -98.4    3.8  146.4   -6.7    17.3
 96 FEB 12  43:01:00:00     552    3.7      49    0.8      197.7  -98.4    3.8  146.4   -6.7    16.8
 96 FEB 12  43:02:00:00     556    3.4      50    0.4      197.7  -98.3    3.8  146.4   -6.7    16.2
 96 FEB 12  43:03:00:00     526    3.8      48    0.9      197.7  -98.3    3.9  146.4   -6.7    15.7
 96 FEB 12  43:04:00:00     519    3.9      45   -0.3      197.7  -98.2    3.9  146.4   -6.7    15.1
 96 FEB 12  43:05:00:00     513    4.4      44   -1.2      197.7  -98.1    3.9  146.4   -6.7    14.6
 96 FEB 12  43:06:00:00     526    4.8      45   -1.4      197.7  -98.1    3.9  146.4   -6.7    14.0
 96 FEB 12  43:07:00:00     546    5.6      47   -1.8      197.7  -98.0    4.0  146.4   -6.7    13.5
 96 FEB 12  43:08:00:00     557    5.8      47   -1.5      197.6  -97.9    4.0  146.4   -6.7    12.9
 96 FEB 12  43:09:00:00     567    6.1      46   -1.8      197.6  -97.9    4.0  146.4   -6.7    12.4
 96 FEB 12  43:10:00:00     555    5.6      50   -0.6      197.6  -97.8    4.1  146.4   -6.7    11.8
 96 FEB 12  43:11:00:00     554    5.2      49   -0.8      197.6  -97.7    4.1  146.4   -6.7    11.3
 96 FEB 12  43:12:00:00     564    4.8      48   -0.5      197.6  -97.7    4.1  146.4   -6.7    10.7
 96 FEB 12  43:13:00:00     560    4.5      49    0.4      197.6  -97.6    4.1  146.4   -6.7    10.2
 96 FEB 12  43:14:00:00     574    4.1      50    0.5      197.6  -97.6    4.2  146.4   -6.7     9.6
 96 FEB 12  43:15:00:00     559    4.3      50    0.1      197.6  -97.5    4.2  146.4   -6.7     9.1
 96 FEB 12  43:16:00:00     557    4.2      49    1.6      197.5  -97.4    4.2  146.4   -6.7     8.5
 96 FEB 12  43:17:00:00     548    3.9      49    1.3      197.5  -97.4    4.3  146.4   -6.7     8.0
 96 FEB 12  43:18:00:00     532    4.0      49    0.0      197.5  -97.3    4.3  146.4   -6.7     7.4
 96 FEB 12  43:19:00:00     533    3.7      48    0.1      197.5  -97.2    4.3  146.4   -6.7     6.9
 96 FEB 12  43:20:00:00     531    3.5      48   -0.2      197.5  -97.1    4.3  146.4   -6.7     6.3
 96 FEB 12  43:21:00:00     528    3.2      46    0.3      197.5  -97.1    4.4  146.4   -6.7     5.8
 96 FEB 12  43:22:00:00     529    2.9      46    0.5      197.5  -97.0    4.4  146.4   -6.7     5.2
 96 FEB 12  43:23:00:00     534    2.9      48    1.4      197.5  -96.9    4.4  146.4   -6.7     4.7
 96 FEB 13  44:00:00:00     531    2.9      48    0.9      197.4  -96.9    4.5  146.4   -6.7     4.1
 96 FEB 13  44:01:00:00     553    2.8      48    0.4      197.4  -96.8    4.5  146.4   -6.7     3.6
 96 FEB 13  44:02:00:00     544    3.1      49    0.5      197.4  -96.7    4.5  146.4   -6.7     3.0
 96 FEB 13  44:03:00:00     544    3.3      48    0.6      197.4  -96.7    4.5  146.4   -6.7     2.5
 96 FEB 13  44:04:00:00     539    3.7      49    0.7      197.4  -96.6    4.6  146.4   -6.7     1.9
 96 FEB 13  44:05:00:00     538    3.9      48   -0.4      197.4  -96.5    4.6  146.4   -6.7     1.4
 96 FEB 13  44:06:00:00     557    3.6      48   -0.2      197.4  -96.5    4.6  146.4   -6.7     0.8
 96 FEB 13  44:07:00:00     535    3.7      48    0.4      197.4  -96.4    4.7  146.4   -6.7     0.3
 96 FEB 13  44:08:00:00     531    3.7      48   -0.6      197.4  -96.3    4.7  146.4   -6.7   359.7
 96 FEB 13  44:09:00:00     539    3.6      48   -0.3      197.3  -96.2    4.7  146.4   -6.7   359.2